Time;durP1;ratioP1;P1;durP2;ratioP2;P2;SDS_P1;SDS_P2;PMS_P1;PMS_P2;Temp;Humidity;BMP_temperature;BMP_pressure;BME280_temperature;BME280_humidity;BME280_pressure;Samples;Min_cycle;Max_cycle;Signal;HPM_P1;HPM_P2
2022/03/24 00:00:44;;;;;;;;;98.75;88.25;;;;;0.38;100.00;101779.19;3722308;38;18310;-51
2022/03/24 00:03:12;;;;;;;;;82.25;68.50;;;;;0.35;100.00;101768.72;3722271;38;18282;-50
2022/03/24 00:05:39;;;;;;;;;102.25;89.50;;;;;0.30;100.00;101773.44;3722418;37;18289;-50
2022/03/24 00:08:07;;;;;;;;;100.75;76.75;;;;;0.23;100.00;101762.28;3722185;38;18273;-50
2022/03/24 00:10:35;;;;;;;;;92.50;71.50;;;;;0.18;100.00;101752.84;3722405;38;18306;-51
2022/03/24 00:13:03;;;;;;;;;89.75;70.75;;;;;0.27;100.00;101755.84;3722313;37;18296;-51
2022/03/24 00:15:30;;;;;;;;;97.25;71.25;;;;;0.28;100.00;101754.03;3721677;38;18272;-49
2022/03/24 00:17:58;;;;;;;;;96.75;72.50;;;;;0.27;100.00;101755.00;3721658;37;18294;-49
2022/03/24 00:20:25;;;;;;;;;92.50;71.25;;;;;0.12;100.00;101748.72;3722519;37;18605;-49
2022/03/24 00:22:53;;;;;;;;;95.25;83.50;;;;;-0.04;100.00;101750.56;3721692;37;18251;-50
2022/03/24 00:25:21;;;;;;;;;102.75;88.00;;;;;-0.13;100.00;101756.41;3721784;38;18282;-50
2022/03/24 00:27:48;;;;;;;;;89.75;79.50;;;;;-0.34;100.00;101719.41;3721795;38;18280;-48
2022/03/24 00:30:15;;;;;;;;;93.50;80.75;;;;;-0.18;100.00;101750.50;3721322;38;18244;-50
2022/03/24 00:32:43;;;;;;;;;89.75;75.75;;;;;-0.16;100.00;101751.25;3721688;38;18269;-49
2022/03/24 00:35:10;;;;;;;;;91.50;69.75;;;;;-0.29;100.00;101745.75;3722338;37;18241;-51
2022/03/24 00:37:38;;;;;;;;;94.50;71.50;;;;;-0.41;100.00;101747.28;3722480;38;18241;-50
2022/03/24 00:40:09;;;;;;;;;93.25;86.25;;;;;-0.45;100.00;101744.88;3721633;37;18236;-49
2022/03/24 00:42:38;;;;;;;;;98.25;85.25;;;;;-0.48;100.00;101742.37;3721832;37;18245;-48
2022/03/24 00:45:10;;;;;;;;;101.25;86.00;;;;;-0.46;100.00;101738.69;3722952;38;18245;-49
2022/03/24 00:47:43;;;;;;;;;96.75;86.75;;;;;-0.53;100.00;101733.84;3722165;37;18239;-49
2022/03/24 00:50:12;;;;;;;;;81.25;61.75;;;;;-0.57;100.00;101733.12;3721787;37;18242;-49
2022/03/24 00:52:44;;;;;;;;;95.75;79.25;;;;;-0.64;100.00;101726.44;3722415;38;18212;-51
2022/03/24 00:55:16;;;;;;;;;95.75;87.50;;;;;-0.65;100.00;101721.19;3722363;38;18217;-50
2022/03/24 00:57:46;;;;;;;;;91.50;81.75;;;;;-0.74;100.00;101723.41;3722309;37;18475;-49
2022/03/24 01:00:16;;;;;;;;;90.00;84.25;;;;;-0.81;100.00;101721.16;3722257;38;18416;-50
2022/03/24 01:02:45;;;;;;;;;95.50;80.50;;;;;-0.89;100.00;101713.59;3722288;37;18188;-49
2022/03/24 01:05:13;;;;;;;;;96.50;82.50;;;;;-0.89;100.00;101716.25;3722408;38;18209;-48
2022/03/24 01:07:42;;;;;;;;;89.75;77.75;;;;;-0.88;100.00;101711.81;3721501;37;18206;-51
2022/03/24 01:10:12;;;;;;;;;84.50;71.25;;;;;-0.96;100.00;101719.31;3722432;37;18181;-50
2022/03/24 01:12:40;;;;;;;;;87.00;75.50;;;;;-1.04;100.00;101715.28;3721653;37;18458;-48
2022/03/24 01:15:14;;;;;;;;;90.00;77.25;;;;;-1.09;100.00;101711.16;3722359;37;18200;-49
2022/03/24 01:17:42;;;;;;;;;84.75;70.75;;;;;-1.11;100.00;101708.59;3722272;37;18181;-49
2022/03/24 01:20:12;;;;;;;;;92.75;74.75;;;;;-1.09;100.00;101706.72;3722305;37;18205;-50
2022/03/24 01:22:39;;;;;;;;;85.00;71.75;;;;;-1.04;100.00;101704.63;3722302;37;18185;-49
2022/03/24 01:25:07;;;;;;;;;93.75;70.50;;;;;-1.13;100.00;101712.28;3722467;37;18166;-49
2022/03/24 01:27:38;;;;;;;;;88.25;79.00;;;;;-1.18;100.00;101706.34;3721623;37;18166;-46
2022/03/24 01:30:09;;;;;;;;;83.75;72.00;;;;;-1.15;100.00;101695.56;3722268;38;18192;-49
2022/03/24 01:32:39;;;;;;;;;87.75;73.25;;;;;-1.14;100.00;101695.47;3721994;37;18439;-49
2022/03/24 01:35:07;;;;;;;;;89.25;78.50;;;;;-1.15;100.00;101693.75;3721661;37;18233;-49
2022/03/24 01:37:36;;;;;;;;;86.25;77.50;;;;;-1.19;100.00;101699.31;3722101;37;18143;-50
2022/03/24 01:40:07;;;;;;;;;89.75;79.25;;;;;-1.34;100.00;101699.16;3721661;37;18161;-48
2022/03/24 01:42:36;;;;;;;;;82.50;66.25;;;;;-1.36;100.00;101694.87;3721426;37;18169;-50
2022/03/24 01:45:06;;;;;;;;;87.00;69.00;;;;;-1.37;100.00;101690.50;3722142;37;18171;-49
2022/03/24 01:47:34;;;;;;;;;86.50;74.00;;;;;-1.43;100.00;101686.34;3722167;38;18157;-49
2022/03/24 01:50:05;;;;;;;;;86.50;71.25;;;;;-1.58;100.00;101683.66;3722464;38;18149;-50
2022/03/24 01:52:32;;;;;;;;;86.25;70.75;;;;;-1.58;100.00;101681.88;3721577;38;18204;-47
2022/03/24 01:55:01;;;;;;;;;81.00;70.75;;;;;-1.56;100.00;101684.44;3722347;38;18254;-50
2022/03/24 01:57:30;;;;;;;;;86.25;70.25;;;;;-1.53;100.00;101677.16;3721631;38;18130;-49
2022/03/24 01:59:59;;;;;;;;;85.75;69.00;;;;;-1.52;100.00;101668.25;3722334;38;18123;-50
2022/03/24 02:02:27;;;;;;;;;72.00;51.50;;;;;-1.70;100.00;101679.84;3722485;38;18162;-49
2022/03/24 02:04:54;;;;;;;;;85.75;73.00;;;;;-1.72;100.00;101671.94;3722508;37;18135;-52
2022/03/24 02:07:32;;;;;;;;;86.00;70.00;;;;;-1.71;100.00;101670.16;3722315;37;18132;-50
2022/03/24 02:10:00;;;;;;;;;86.50;69.50;;;;;-1.74;100.00;101660.56;3722424;38;18142;-50
2022/03/24 02:12:29;;;;;;;;;93.00;74.50;;;;;-1.68;100.00;101664.69;3722563;37;18122;-52
2022/03/24 02:14:58;;;;;;;;;83.75;65.00;;;;;-1.67;100.00;101661.97;3722423;37;18141;-52
2022/03/24 02:17:30;;;;;;;;;86.75;71.00;;;;;-1.75;100.00;101672.09;3722361;37;18090;-50
2022/03/24 02:19:58;;;;;;;;;87.00;69.00;;;;;-1.82;100.00;101665.38;3722544;37;18335;-49
2022/03/24 02:22:28;;;;;;;;;80.00;66.00;;;;;-1.82;100.00;101668.03;3721641;37;18095;-50
2022/03/24 02:24:55;;;;;;;;;86.25;69.00;;;;;-1.80;100.00;101671.47;3722488;37;18208;-49
2022/03/24 02:27:24;;;;;;;;;85.75;71.25;;;;;-1.90;100.00;101666.69;3722543;38;18075;-49
2022/03/24 02:29:52;;;;;;;;;84.50;64.75;;;;;-1.95;100.00;101664.28;3722617;38;18107;-49
2022/03/24 02:32:20;;;;;;;;;82.00;66.00;;;;;-1.88;100.00;101660.37;3722482;37;18352;-49
2022/03/24 02:34:48;;;;;;;;;88.50;72.50;;;;;-2.01;100.00;101656.63;3721768;38;18082;-50
2022/03/24 02:37:19;;;;;;;;;81.00;60.75;;;;;-1.97;100.00;101658.19;3722519;37;18107;-50
2022/03/24 02:39:58;;;;;;;;;87.50;71.25;;;;;-1.96;100.00;101649.28;3722567;37;18098;-51
2022/03/24 02:42:28;;;;;;;;;84.25;70.75;;;;;-1.96;100.00;101654.59;3721645;37;18189;-50
2022/03/24 02:44:58;;;;;;;;;87.75;70.00;;;;;-1.94;100.00;101655.38;3715493;37;67539;-50
2022/03/24 02:47:26;;;;;;;;;85.25;67.75;;;;;-2.00;100.00;101658.34;3713978;37;70727;-50
2022/03/24 02:49:55;;;;;;;;;83.25;60.75;;;;;-2.06;100.00;101654.19;3722567;37;18063;-49
2022/03/24 02:52:22;;;;;;;;;86.75;70.00;;;;;-2.01;100.00;101648.66;3722299;37;18095;-49
2022/03/24 02:54:50;;;;;;;;;86.50;67.75;;;;;-2.03;100.00;101651.38;3722088;37;18063;-50
2022/03/24 02:57:18;;;;;;;;;87.25;71.50;;;;;-2.09;100.00;101643.78;3721893;38;18194;-50
2022/03/24 02:59:46;;;;;;;;;79.00;62.25;;;;;-2.11;100.00;101644.78;3722415;38;18061;-50
2022/03/24 03:02:15;;;;;;;;;83.75;67.25;;;;;-2.13;100.00;101649.31;3721612;37;18054;-51
2022/03/24 03:04:44;;;;;;;;;87.00;74.25;;;;;-2.24;100.00;101648.97;3722381;37;18164;-51
2022/03/24 03:07:12;;;;;;;;;80.00;63.00;;;;;-2.27;100.00;101649.97;3722269;38;18180;-49
2022/03/24 03:09:40;;;;;;;;;77.00;61.25;;;;;-2.23;100.00;101642.72;3722430;37;18034;-49
2022/03/24 03:12:12;;;;;;;;;85.00;67.00;;;;;-2.23;100.00;101640.06;3722405;38;18057;-50
2022/03/24 03:14:40;;;;;;;;;81.25;65.00;;;;;-2.25;100.00;101637.50;3722413;37;18066;-51
2022/03/24 03:17:09;;;;;;;;;82.75;63.00;;;;;-2.22;100.00;101637.34;3722465;37;17964;-51
2022/03/24 03:19:36;;;;;;;;;83.75;65.50;;;;;-2.21;100.00;101632.91;3722503;38;18036;-50
2022/03/24 03:22:04;;;;;;;;;81.50;61.25;;;;;-2.25;100.00;101628.69;3722394;38;18048;-49
2022/03/24 03:24:31;;;;;;;;;84.50;70.25;;;;;-2.35;100.00;101630.94;3722388;37;18085;-50
2022/03/24 03:26:59;;;;;;;;;84.25;64.25;;;;;-2.36;100.00;101635.38;3722310;38;18019;-51
2022/03/24 03:29:26;;;;;;;;;77.50;60.25;;;;;-2.38;100.00;101631.94;3721556;37;18026;-52
2022/03/24 03:31:54;;;;;;;;;87.25;71.00;;;;;-2.45;100.00;101622.56;3722363;38;18023;-53
2022/03/24 03:34:24;;;;;;;;;84.75;67.25;;;;;-2.49;100.00;101630.72;3722280;38;18035;-50
2022/03/24 03:36:56;;;;;;;;;81.50;67.50;;;;;-2.52;100.00;101631.75;3722411;37;18022;-49
2022/03/24 03:39:24;;;;;;;;;74.75;61.00;;;;;-2.48;100.00;101640.41;3722473;37;18307;-51
2022/03/24 03:41:52;;;;;;;;;81.75;64.25;;;;;-2.63;100.00;101636.72;3722430;38;18031;-49
2022/03/24 03:44:20;;;;;;;;;82.75;63.00;;;;;-2.62;100.00;101632.28;3721588;37;18030;-49
2022/03/24 03:46:48;;;;;;;;;83.50;67.75;;;;;-2.64;100.00;101635.00;3722445;38;17993;-50
2022/03/24 03:49:16;;;;;;;;;83.00;64.00;;;;;-2.57;100.00;101636.41;3722360;37;18015;-49
2022/03/24 03:51:43;;;;;;;;;83.75;70.50;;;;;-2.58;100.00;101639.12;3721511;37;18004;-50
2022/03/24 03:54:11;;;;;;;;;84.75;68.00;;;;;-2.59;100.00;101638.25;3722286;37;18012;-49
2022/03/24 03:56:38;;;;;;;;;83.75;66.00;;;;;-2.59;100.00;101640.91;3722414;37;17992;-49
2022/03/24 03:59:07;;;;;;;;;81.25;64.50;;;;;-2.68;100.00;101633.44;3722424;37;18009;-50
2022/03/24 04:01:36;;;;;;;;;77.75;62.00;;;;;-2.74;100.00;101639.00;3722370;37;18034;-49
2022/03/24 04:04:05;;;;;;;;;84.25;64.75;;;;;-2.78;100.00;101630.34;3722483;38;18011;-49
2022/03/24 04:06:32;;;;;;;;;73.50;57.25;;;;;-2.83;100.00;101632.34;3721577;37;17958;-47
2022/03/24 04:08:59;;;;;;;;;82.75;69.25;;;;;-2.83;100.00;101639.44;3722311;37;18177;-49
2022/03/24 04:11:26;;;;;;;;;89.75;69.00;;;;;-2.93;100.00;101632.84;3722349;37;17968;-49
2022/03/24 04:13:54;;;;;;;;;84.00;64.50;;;;;-3.00;100.00;101633.13;3722336;38;17985;-50
2022/03/24 04:16:22;;;;;;;;;84.00;69.00;;;;;-3.01;100.00;101635.84;3722366;37;18019;-49
2022/03/24 04:18:49;;;;;;;;;83.75;67.00;;;;;-3.02;100.00;101634.13;3722471;37;18047;-50
2022/03/24 04:21:18;;;;;;;;;84.25;69.50;;;;;-3.05;100.00;101648.38;3722386;38;17996;-50
2022/03/24 04:23:45;;;;;;;;;86.75;70.00;;;;;-3.07;100.00;101639.63;3721650;38;17964;-50
2022/03/24 04:26:13;;;;;;;;;87.25;71.25;;;;;-3.08;100.00;101631.75;3722388;37;18163;-49
2022/03/24 04:28:44;;;;;;;;;87.25;66.00;;;;;-3.08;100.00;101629.97;3722300;38;18167;-50
2022/03/24 04:31:12;;;;;;;;;83.00;63.50;;;;;-3.11;100.00;101618.66;3721586;38;17949;-50
2022/03/24 04:33:40;;;;;;;;;89.00;71.50;;;;;-3.05;100.00;101623.69;3721523;38;18165;-50
2022/03/24 04:36:08;;;;;;;;;87.25;72.00;;;;;-2.96;100.00;101617.09;3721619;38;17939;-49
2022/03/24 04:38:36;;;;;;;;;80.50;60.75;;;;;-2.87;100.00;101606.09;3721619;38;18012;-50
2022/03/24 04:41:05;;;;;;;;;84.50;67.75;;;;;-2.80;100.00;101611.03;3722418;37;17958;-50
2022/03/24 04:43:34;;;;;;;;;83.00;64.75;;;;;-2.78;100.00;101606.50;3722422;38;17970;-49
2022/03/24 04:46:01;;;;;;;;;77.25;57.50;;;;;-2.69;100.00;101610.50;3721784;38;17934;-49
2022/03/24 04:48:35;;;;;;;;;88.50;71.25;;;;;-2.63;100.00;101609.37;3722291;37;18010;-50
2022/03/24 04:51:05;;;;;;;;;78.50;61.00;;;;;-2.62;100.00;101608.44;3722427;37;17922;-50
2022/03/24 04:53:33;;;;;;;;;89.25;73.00;;;;;-2.52;100.00;101605.22;3722402;37;17913;-52
2022/03/24 04:56:00;;;;;;;;;90.75;79.75;;;;;-2.41;100.00;101602.06;3722189;38;17904;-49
2022/03/24 04:58:29;;;;;;;;;91.50;75.25;;;;;-2.33;100.00;101606.06;3721475;37;18029;-50
2022/03/24 05:00:56;;;;;;;;;93.75;78.75;;;;;-2.27;100.00;101599.59;3722490;38;17930;-49
2022/03/24 05:03:23;;;;;;;;;79.00;57.25;;;;;-2.19;100.00;101599.22;3721501;38;18002;-50
2022/03/24 05:05:51;;;;;;;;;92.75;79.25;;;;;-2.09;100.00;101603.13;3722167;37;17895;-52
2022/03/24 05:08:19;;;;;;;;;99.75;87.75;;;;;-1.96;100.00;101609.50;3722139;37;17909;-50
2022/03/24 05:10:46;;;;;;;;;95.25;82.50;;;;;-1.82;100.00;101599.03;3721471;38;17950;-48
2022/03/24 05:13:14;;;;;;;;;89.75;73.75;;;;;-1.62;100.00;101605.12;3721735;38;17910;-48
2022/03/24 05:15:41;;;;;;;;;99.25;84.00;;;;;-1.47;100.00;101599.84;3722125;37;17912;-50
2022/03/24 05:18:08;;;;;;;;;94.50;80.00;;;;;-1.44;100.00;101593.50;3721421;37;17908;-51
2022/03/24 05:20:36;;;;;;;;;92.50;81.50;;;;;-1.23;100.00;101610.09;3721543;37;17900;-50
2022/03/24 05:23:03;;;;;;;;;89.25;81.75;;;;;-1.18;100.00;101592.97;3722261;37;17869;-50
2022/03/24 05:25:30;;;;;;;;;98.25;84.25;;;;;-1.05;100.00;101602.00;3722613;37;17892;-48
2022/03/24 05:27:58;;;;;;;;;89.25;79.00;;;;;-0.91;100.00;101598.56;3722216;37;17878;-48
2022/03/24 05:30:26;;;;;;;;;101.00;87.75;;;;;-0.81;100.00;101601.56;3722337;38;17918;-50
2022/03/24 05:32:53;;;;;;;;;94.75;83.00;;;;;-0.75;100.00;101595.91;3722361;37;17877;-49
2022/03/24 05:35:21;;;;;;;;;112.00;92.75;;;;;-0.58;100.00;101594.97;3722152;38;17862;-49
2022/03/24 05:37:49;;;;;;;;;109.00;91.50;;;;;-0.41;100.00;101598.34;3722496;38;17908;-49
2022/03/24 05:40:16;;;;;;;;;115.25;97.25;;;;;-0.26;100.00;101583.31;3722397;37;17845;-49
2022/03/24 05:42:44;;;;;;;;;110.00;95.25;;;;;-0.04;100.00;101589.09;3722381;38;17863;-51
2022/03/24 05:45:11;;;;;;;;;110.25;96.00;;;;;0.12;100.00;101589.03;3722298;37;18012;-50
2022/03/24 05:47:39;;;;;;;;;105.00;93.00;;;;;0.26;100.00;101588.22;3721499;38;17907;-49
2022/03/24 05:50:11;;;;;;;;;115.25;105.25;;;;;0.39;100.00;101593.66;3721650;37;17822;-49
2022/03/24 05:53:10;;;;;;;;;101.00;92.75;;;;;0.63;100.00;101589.47;3722442;37;17846;-51
2022/03/24 05:55:40;;;;;;;;;87.25;79.25;;;;;0.75;100.00;101580.72;3722355;38;17839;-50
2022/03/24 05:58:07;;;;;;;;;89.50;74.75;;;;;0.99;100.00;101581.00;3721648;37;17841;-49
2022/03/24 06:00:39;;;;;;;;;82.50;65.75;;;;;1.25;100.00;101579.31;3722342;37;17813;-52
2022/03/24 06:03:07;;;;;;;;;84.25;68.75;;;;;1.44;100.00;101571.84;3721752;37;17835;-52
2022/03/24 06:05:40;;;;;;;;;79.75;69.00;;;;;1.69;100.00;101576.37;3722407;38;17813;-55
2022/03/24 06:08:09;;;;;;;;;77.50;68.00;;;;;1.90;100.00;101576.78;3722449;37;17826;-54
2022/03/24 06:10:36;;;;;;;;;81.75;72.75;;;;;2.13;100.00;101570.72;3722382;37;17801;-54
2022/03/24 06:13:04;;;;;;;;;89.50;69.00;;;;;2.34;100.00;101565.72;3722362;38;17879;-55
2022/03/24 06:15:32;;;;;;;;;94.00;75.25;;;;;2.56;100.00;101570.44;3722566;37;17817;-53
2022/03/24 06:17:59;;;;;;;;;85.75;80.75;;;;;2.77;100.00;101550.19;3721605;38;17788;-51
2022/03/24 06:20:27;;;;;;;;;81.50;74.25;;;;;2.99;100.00;101561.06;3721861;37;17804;-52
2022/03/24 06:22:54;;;;;;;;;84.25;71.75;;;;;3.22;100.00;101547.81;3721674;37;17810;-54
2022/03/24 06:25:22;;;;;;;;;74.75;63.50;;;;;3.46;100.00;101556.72;3723268;37;17789;-54
2022/03/24 06:27:50;;;;;;;;;82.00;65.75;;;;;3.72;100.00;101557.44;3723038;38;17789;-54
2022/03/24 06:30:17;;;;;;;;;82.00;64.00;;;;;4.03;100.00;101555.13;3722365;38;17781;-52
2022/03/24 06:32:45;;;;;;;;;86.25;67.00;;;;;4.32;100.00;101551.03;3722393;37;17794;-55
2022/03/24 06:35:13;;;;;;;;;78.50;61.75;;;;;4.56;100.00;101545.59;3721735;37;17919;-55
2022/03/24 06:37:41;;;;;;;;;76.50;59.00;;;;;4.74;94.75;101545.94;3722462;37;17792;-56
2022/03/24 06:40:10;;;;;;;;;75.25;59.75;;;;;4.94;94.52;101535.34;3722556;38;17792;-56
2022/03/24 06:42:38;;;;;;;;;73.50;57.75;;;;;5.18;94.56;101529.81;3721809;37;17812;-54
2022/03/24 06:45:07;;;;;;;;;75.50;58.25;;;;;5.47;93.38;101534.63;3722660;37;20995;-54
2022/03/24 06:47:35;;;;;;;;;74.25;56.75;;;;;5.76;89.56;101533.00;3722505;38;17766;-52
2022/03/24 06:50:03;;;;;;;;;74.75;60.25;;;;;5.97;83.47;101541.16;3722378;37;17759;-54
2022/03/24 06:52:30;;;;;;;;;71.75;54.25;;;;;6.02;78.78;101535.37;3722645;37;17763;-54
2022/03/24 06:54:57;;;;;;;;;74.00;57.25;;;;;6.20;78.21;101531.13;3722398;37;18037;-55
2022/03/24 06:57:26;;;;;;;;;69.75;55.50;;;;;6.41;77.56;101525.72;3722560;38;17745;-53
2022/03/24 06:59:54;;;;;;;;;76.25;60.00;;;;;6.52;76.48;101522.94;3722659;37;21033;-54
2022/03/24 07:02:21;;;;;;;;;67.50;51.25;;;;;6.55;74.12;101510.09;3721597;38;20922;-51
2022/03/24 07:04:48;;;;;;;;;66.50;54.00;;;;;6.75;71.86;101519.09;3721505;38;20955;-53
2022/03/24 07:07:16;;;;;;;;;71.25;56.75;;;;;6.76;68.92;101511.87;3722631;37;17721;-55
2022/03/24 07:09:43;;;;;;;;;71.50;57.50;;;;;6.80;70.04;101514.13;3721787;37;17758;-56
2022/03/24 07:12:11;;;;;;;;;69.50;55.25;;;;;7.05;71.35;101514.66;3721841;37;17729;-56
2022/03/24 07:14:39;;;;;;;;;73.75;58.00;;;;;7.23;69.13;101518.37;3722526;37;17720;-53
2022/03/24 07:17:06;;;;;;;;;72.75;56.50;;;;;7.19;67.83;101509.72;3722642;38;17920;-53
2022/03/24 07:19:34;;;;;;;;;73.25;58.25;;;;;7.25;68.45;101502.94;3721752;38;17712;-53
2022/03/24 07:22:02;;;;;;;;;72.25;55.00;;;;;7.54;67.67;101509.19;3721721;38;17730;-53
2022/03/24 07:24:30;;;;;;;;;71.50;56.50;;;;;7.71;64.10;101502.25;3722528;37;17725;-56
2022/03/24 07:26:57;;;;;;;;;69.50;55.50;;;;;7.94;64.26;101497.41;3722478;37;17715;-54
2022/03/24 07:29:24;;;;;;;;;69.50;54.00;;;;;8.11;63.20;101506.59;3722502;37;17698;-52
2022/03/24 07:31:52;;;;;;;;;64.50;52.25;;;;;8.20;63.44;101511.13;3722386;38;17712;-48
2022/03/24 07:34:20;;;;;;;;;67.25;54.50;;;;;8.26;61.58;101506.00;3722149;38;17716;-50
2022/03/24 07:36:50;;;;;;;;;67.25;52.75;;;;;8.53;60.58;101501.69;3722575;37;17712;-51
2022/03/24 07:39:18;;;;;;;;;66.50;53.50;;;;;8.66;59.18;101495.97;3722476;37;17698;-51
2022/03/24 07:41:46;;;;;;;;;63.50;51.50;;;;;8.80;58.70;101495.47;3721439;38;20971;-52
2022/03/24 07:44:13;;;;;;;;;63.00;50.75;;;;;8.83;58.90;101489.78;3722390;37;20967;-50
2022/03/24 07:46:41;;;;;;;;;66.25;54.00;;;;;9.00;58.82;101485.41;3721477;37;17714;-50
2022/03/24 07:49:09;;;;;;;;;66.75;52.25;;;;;9.17;59.21;101484.59;3722042;37;17677;-51
2022/03/24 07:51:38;;;;;;;;;67.75;54.00;;;;;9.31;57.67;101478.69;3721683;38;21071;-51
2022/03/24 07:54:07;;;;;;;;;67.25;53.25;;;;;9.57;56.83;101476.06;3722375;37;20873;-50
2022/03/24 07:56:35;;;;;;;;;70.50;55.25;;;;;9.81;56.04;101467.31;3721703;38;20893;-50
2022/03/24 07:59:05;;;;;;;;;67.50;53.50;;;;;10.10;54.58;101469.72;3722421;38;20953;-50
2022/03/24 08:01:33;;;;;;;;;64.00;51.75;;;;;10.37;52.77;101461.47;3722410;38;17655;-49
2022/03/24 08:04:04;;;;;;;;;52.00;43.25;;;;;10.64;48.55;101463.13;3722492;37;20887;-51
2022/03/24 08:06:32;;;;;;;;;55.00;45.50;;;;;10.75;49.27;101452.00;3722332;37;20911;-50
2022/03/24 08:08:59;;;;;;;;;59.75;48.00;;;;;11.08;47.53;101452.94;3722403;37;20872;-52
2022/03/24 08:11:27;;;;;;;;;58.00;46.25;;;;;11.43;45.85;101443.72;3722388;38;20887;-50
2022/03/24 08:13:56;;;;;;;;;57.50;46.00;;;;;11.67;43.32;101442.88;3722344;37;20848;-50
2022/03/24 08:16:26;;;;;;;;;53.50;44.50;;;;;11.97;41.99;101444.06;3722243;38;20850;-49
2022/03/24 08:18:54;;;;;;;;;49.25;41.75;;;;;12.11;40.50;101445.22;3722526;37;20999;-49
2022/03/24 08:21:22;;;;;;;;;54.50;44.00;;;;;12.29;39.41;101434.19;3722341;37;21929;-50
2022/03/24 08:23:49;;;;;;;;;52.25;43.50;;;;;12.40;37.01;101441.97;3722530;37;20925;-48
2022/03/24 08:26:16;;;;;;;;;55.50;45.25;;;;;12.49;35.57;101440.87;3722440;37;21008;-49
2022/03/24 08:28:44;;;;;;;;;51.25;43.25;;;;;12.51;35.15;101420.69;3722372;37;21897;-49
2022/03/24 08:31:12;;;;;;;;;45.75;38.00;;;;;12.83;34.41;101449.59;3722446;38;21897;-51
2022/03/24 08:33:39;;;;;;;;;50.50;42.50;;;;;12.84;33.91;101426.84;3721587;37;21879;-49
2022/03/24 08:36:07;;;;;;;;;40.50;36.75;;;;;12.92;33.11;101432.25;3722414;38;21846;-49
2022/03/24 08:38:34;;;;;;;;;52.75;42.50;;;;;12.96;33.26;101421.84;3722459;37;22016;-51
2022/03/24 08:41:02;;;;;;;;;53.25;44.00;;;;;13.09;32.91;101432.12;3721755;37;21986;-50
2022/03/24 08:43:29;;;;;;;;;55.75;45.25;;;;;13.14;32.19;101422.41;3721800;37;21917;-51
2022/03/24 08:45:56;;;;;;;;;48.00;40.75;;;;;13.31;31.90;101425.06;3722668;37;21747;-50
2022/03/24 08:48:24;;;;;;;;;51.50;43.75;;;;;13.55;31.19;101417.56;3721589;37;21907;-51
2022/03/24 08:50:51;;;;;;;;;49.25;42.25;;;;;13.49;30.92;101418.31;3722447;37;21927;-50
2022/03/24 08:53:19;;;;;;;;;53.00;44.25;;;;;13.44;30.78;101415.28;3722467;37;21874;-50
2022/03/24 08:55:46;;;;;;;;;52.00;42.50;;;;;13.57;30.91;101420.94;3721690;38;21766;-51
2022/03/24 08:58:18;;;;;;;;;40.75;35.00;;;;;13.55;30.84;101406.66;3722256;37;22021;-49
2022/03/24 09:00:47;;;;;;;;;49.50;41.50;;;;;13.63;30.53;101392.16;3721640;37;21726;-50
2022/03/24 09:03:14;;;;;;;;;49.50;41.25;;;;;13.78;29.90;101400.38;3722495;37;21768;-50
2022/03/24 09:05:41;;;;;;;;;48.00;40.00;;;;;14.04;30.15;101381.72;3721501;37;22003;-49
2022/03/24 09:08:09;;;;;;;;;50.75;42.00;;;;;14.22;29.58;101393.09;3722292;37;21860;-50
2022/03/24 09:10:36;;;;;;;;;44.75;38.00;;;;;14.18;29.74;101375.44;3722607;37;21848;-49
2022/03/24 09:13:03;;;;;;;;;46.50;39.75;;;;;14.31;29.86;101373.94;3721674;37;21917;-48
2022/03/24 09:15:31;;;;;;;;;37.75;33.50;;;;;14.48;28.88;101389.94;3721711;37;21854;-48
2022/03/24 09:17:58;;;;;;;;;48.00;39.25;;;;;14.55;29.22;101358.19;3722357;38;21827;-48
2022/03/24 09:20:26;;;;;;;;;49.25;40.75;;;;;14.72;28.75;101347.91;3722260;37;21775;-48
2022/03/24 09:22:53;;;;;;;;;40.25;35.25;;;;;15.01;28.58;101366.06;3721766;37;21860;-48
2022/03/24 09:25:21;;;;;;;;;46.75;39.75;;;;;15.04;28.70;101353.91;3722245;38;21825;-49
2022/03/24 09:27:48;;;;;;;;;47.00;39.25;;;;;15.16;27.89;101357.81;3722215;37;21936;-48
2022/03/24 09:30:18;;;;;;;;;38.50;34.75;;;;;15.16;28.12;101347.75;3722410;38;21869;-48
2022/03/24 09:32:47;;;;;;;;;51.00;41.25;;;;;15.33;27.65;101364.69;3721595;38;21718;-48
2022/03/24 09:35:15;;;;;;;;;47.25;40.00;;;;;15.42;28.01;101357.22;3722498;37;21947;-48
2022/03/24 09:37:43;;;;;;;;;43.25;37.00;;;;;15.27;27.03;101357.28;3722304;38;21771;-50
2022/03/24 09:40:16;;;;;;;;;50.50;41.75;;;;;15.36;27.48;101369.75;3722331;37;21820;-49
2022/03/24 09:42:43;;;;;;;;;43.50;36.50;;;;;15.50;27.32;101348.91;3722417;37;21741;-48
2022/03/24 09:45:12;;;;;;;;;38.75;34.00;;;;;15.76;26.97;101362.78;3722217;37;21790;-49
2022/03/24 09:47:41;;;;;;;;;46.50;40.50;;;;;15.61;26.59;101347.53;3721525;38;21797;-48
2022/03/24 09:50:10;;;;;;;;;47.75;39.50;;;;;15.63;26.52;101351.75;3722539;38;21246;-49
2022/03/24 09:52:38;;;;;;;;;44.75;38.75;;;;;15.70;25.59;101349.06;3722384;37;21758;-49
2022/03/24 09:55:08;;;;;;;;;47.75;40.25;;;;;15.73;26.27;101357.72;3721486;38;21828;-48
2022/03/24 09:57:37;;;;;;;;;43.25;35.25;;;;;15.94;24.69;101337.72;3721588;38;21951;-50
2022/03/24 10:00:05;;;;;;;;;33.25;30.00;;;;;15.98;24.55;101351.81;3722355;37;21805;-51
2022/03/24 10:02:33;;;;;;;;;45.25;38.00;;;;;16.05;24.52;101347.25;3721504;37;21759;-50
2022/03/24 10:05:06;;;;;;;;;45.25;37.50;;;;;15.97;24.62;101334.59;3722240;37;21759;-50
2022/03/24 10:07:48;;;;;;;;;43.00;37.25;;;;;15.85;24.26;101369.78;3722271;38;21809;-49
2022/03/24 10:10:27;;;;;;;;;47.25;39.25;;;;;15.83;25.52;101330.91;3722519;38;21761;-49
2022/03/24 10:12:55;;;;;;;;;51.00;41.75;;;;;16.00;25.60;101328.72;3722459;38;21770;-49
2022/03/24 10:15:22;;;;;;;;;54.50;44.75;;;;;15.87;25.73;101345.00;3722419;38;21745;-50
2022/03/24 10:17:54;;;;;;;;;56.75;46.50;;;;;15.86;25.81;101337.88;3722479;37;21778;-51
2022/03/24 10:20:29;;;;;;;;;55.25;45.00;;;;;16.05;26.43;101328.97;3722450;37;21784;-50
2022/03/24 10:23:05;;;;;;;;;48.25;40.75;;;;;16.24;25.58;101343.75;3722459;38;21778;-51
2022/03/24 10:25:39;;;;;;;;;45.50;38.25;;;;;16.26;25.52;101332.63;3721535;38;21805;-51
2022/03/24 10:28:10;;;;;;;;;54.25;44.50;;;;;16.19;25.76;101338.91;3722506;38;21661;-51
2022/03/24 10:30:55;;;;;;;;;52.25;43.50;;;;;16.20;26.05;101345.22;3722703;38;21816;-49
2022/03/24 10:33:40;;;;;;;;;61.25;50.50;;;;;16.20;26.52;101332.41;3722343;37;21824;-49
2022/03/24 10:36:17;;;;;;;;;58.75;47.75;;;;;16.17;27.08;101332.81;3722442;37;21660;-50
2022/03/24 10:38:47;;;;;;;;;49.25;41.75;;;;;16.01;27.58;101324.13;3722534;38;21761;-50
2022/03/24 10:41:22;;;;;;;;;57.75;47.00;;;;;16.11;27.33;101343.72;3722518;37;21662;-49
2022/03/24 10:43:55;;;;;;;;;49.25;40.25;;;;;16.05;27.31;101356.28;3722347;38;21724;-50
2022/03/24 10:46:29;;;;;;;;;50.75;42.25;;;;;16.12;27.25;101331.72;3722369;37;21703;-50
2022/03/24 10:48:59;;;;;;;;;58.25;46.50;;;;;16.33;27.74;101339.81;3722437;37;21806;-49
2022/03/24 10:51:31;;;;;;;;;52.75;42.00;;;;;16.16;28.50;101344.75;3722512;38;21576;-48
2022/03/24 10:54:38;;;;;;;;;56.50;46.00;;;;;16.08;28.11;101317.66;3722592;37;21725;-49
2022/03/24 10:57:23;;;;;;;;;58.75;47.50;;;;;16.09;28.53;101343.91;3722324;37;21947;-49
2022/03/24 10:59:58;;;;;;;;;50.75;41.25;;;;;16.07;29.27;101309.66;3721874;37;21699;-52
2022/03/24 11:02:28;;;;;;;;;55.25;44.75;;;;;15.95;29.43;101303.91;3722331;38;21900;-51
2022/03/24 11:05:12;;;;;;;;;41.00;34.25;;;;;16.32;27.92;101331.84;3721588;37;21751;-52
2022/03/24 11:07:39;;;;;;;;;45.75;39.25;;;;;16.62;27.38;101341.44;3722362;37;21572;-52
2022/03/24 11:10:16;;;;;;;;;50.00;41.00;;;;;16.54;26.84;101358.00;3721830;38;21707;-53
2022/03/24 11:12:44;;;;;;;;;47.25;39.00;;;;;16.44;26.56;101319.28;3722385;38;21713;-53
2022/03/24 11:15:12;;;;;;;;;48.00;39.75;;;;;16.28;26.97;101303.22;3722220;37;21702;-48